Terminal Aerodrome Forecast
Issued by NWS Raleigh/Durham, NC

Current Version | Previous Version | Text Only | Print | Product List | Glossary On
Versions: 1 2 3 4 5 6 7 8 9 10 11 12 13 14 15 16 17 18 19 20 21 22 23 24 25 26 27 28 29 30 31 32 33 34 35 36 37 38 39 40 41 42 43 44 45 46 47 48 49
000
FTUS42 KRAH 232340
TAFFAY
TAF
KFAY 232340Z 2400/2424 16003KT P6SM BKN060
     FM240700 VRB04KT 1SM BR SCT008 BKN020
      TEMPO 2410/2414 3/4SM BR BKN003
     FM241500 22008KT P6SM BKN090
     FM242000 21012KT P6SM SCT060=

USA.gov is the U.S. government's official web portal to all federal, state and local government web resources and services.